Página principal
METAR-TAF:

METAR-TAF

Aeroportos :

Aeroporto Internacional de Ancara Esenboğa

Ancara Esenboğa, Turquia

latitude: 40-07N, longitude: 032-59E, altura: 953 m

Observação actual do tempo

O boletim foi feito há 28 minutos, às 10:50 UTC
Vento 7 kt de nordeste
Temperatura 28°C
Humidade 20%
Pressão 1014 hPa
Visibilidade 10 km ou mais
Nuvens dispersasa uma altura de 4000 ft

METAR: LTAC 191050Z 05007KT 9999 SCT040 28/03 Q1014 NOSIG RMK RWY21L 04005G15KT 320V120 RWY03L VRB07KT RWY21R 04007G17KT 340V080

Hora: 14:18 (11:18 UTC)

Previsão

O boletim foi feito há 3 horas e 58 minutos, às 07:20 UTC
Previsão válida de 19 às 07 UTC a 20 às 06 UTC
Vento 12 kt de nordeste
Visibilidade 10 km ou mais
Nuvens dispersasa uma altura de 4000 ft
Tornando-se
de 19 às 17 UTC a 19 às 19 UTC
Vento 2 kt com direcção variável
Visibilidade 10 km ou mais
sem nuvens abaixo de 1500 metros e sem cumulonimbus

TAF: LTAC 190720Z 1907/2006 04012KT 9999 SCT040 BECMG 1917/1919 VRB02KT CAVOK

Observações e previsões do tempo de mais de 4000 aeroportos (mensagens METAR e TAF).

As estações disponíveis são os pontos amarelos e vermelhos sobre o mapa.

Mova o rato sobre o mapa para ver o nome da estação.

Depois clique no ponto para visualizar as observações e previsões meteorológicas.

Para alterar o mapa : clique nos botões verdes com uma cruz preta para aumentar o zoom; no botão verde com uma pitada de zoom; ou nas setas verdes para mapas adjacentes.


METAR-TAF: